createdAt,value
2019-02-18T00:01:21.383Z,99.90
2019-02-18T00:02:37.664Z,99.90
2019-02-18T00:03:54.175Z,99.90
2019-02-18T00:05:10.842Z,99.90
2019-02-18T00:06:27.599Z,99.90
2019-02-18T00:07:43.848Z,99.90
2019-02-18T00:09:00.644Z,99.90
2019-02-18T00:10:19.412Z,99.90
2019-02-18T00:11:36.264Z,99.90
2019-02-18T00:12:52.712Z,99.90
2019-02-18T00:14:09.281Z,99.90
2019-02-18T00:15:25.852Z,99.90
2019-02-18T00:16:42.467Z,99.90
2019-02-18T00:17:59.214Z,99.90
2019-02-18T00:19:15.889Z,99.90
2019-02-18T00:20:32.587Z,99.90
2019-02-18T00:21:49.333Z,99.90
2019-02-18T00:23:06.137Z,99.90
2019-02-18T00:24:22.664Z,99.90
2019-02-18T00:25:39.348Z,99.90
2019-02-18T00:26:56.182Z,99.90
2019-02-18T00:28:12.849Z,99.90
2019-02-18T00:29:29.276Z,99.90
2019-02-18T00:30:45.835Z,99.90
2019-02-18T00:32:02.791Z,99.90
2019-02-18T00:33:19.427Z,99.90
2019-02-18T00:34:36.120Z,99.90
2019-02-18T00:35:52.664Z,99.90
2019-02-18T00:37:09.440Z,99.90
2019-02-18T00:38:25.954Z,99.90
2019-02-18T00:39:42.195Z,99.90
2019-02-18T00:40:59.335Z,99.90
2019-02-18T00:42:16.105Z,99.90
2019-02-18T00:43:32.747Z,99.90
2019-02-18T00:44:49.018Z,99.90
2019-02-18T00:46:06.087Z,99.90
2019-02-18T00:47:22.375Z,99.90
2019-02-18T00:48:38.847Z,99.90
2019-02-18T00:49:55.661Z,99.90
2019-02-18T00:51:12.600Z,99.90
2019-02-18T00:52:29.291Z,99.90
2019-02-18T00:53:45.847Z,99.90
2019-02-18T00:55:02.111Z,99.90
2019-02-18T00:56:19.271Z,99.90
2019-02-18T00:57:36.085Z,99.90
2019-02-18T00:58:52.318Z,99.90
2019-02-18T01:00:08.827Z,99.90
2019-02-18T01:01:25.309Z,99.90
2019-02-18T01:02:41.823Z,99.90
2019-02-18T01:03:58.100Z,99.90
2019-02-18T01:05:14.440Z,99.90
2019-02-18T01:06:31.110Z,99.90
2019-02-18T01:07:47.486Z,99.90
2019-02-18T01:09:04.716Z,99.90
2019-02-18T01:10:21.503Z,99.90
2019-02-18T01:11:37.963Z,99.90
2019-02-18T01:12:55.120Z,99.90
2019-02-18T01:14:11.532Z,99.90
2019-02-18T01:15:28.007Z,99.90
2019-02-18T01:16:44.200Z,99.90
2019-02-18T01:18:00.413Z,99.90
2019-02-18T01:19:16.745Z,99.90
2019-02-18T01:21:49.845Z,99.90
2019-02-18T01:23:06.455Z,99.90
2019-02-18T01:24:22.981Z,99.90
2019-02-18T01:25:39.634Z,99.90
2019-02-18T01:26:56.093Z,99.90
2019-02-18T01:28:13.221Z,99.90
2019-02-18T01:29:29.599Z,99.90
2019-02-18T01:30:46.337Z,99.90
2019-02-18T01:32:02.924Z,99.90
2019-02-18T01:33:19.577Z,99.90
2019-02-18T01:34:36.699Z,99.90
2019-02-18T01:35:53.587Z,99.90
2019-02-18T01:37:10.708Z,99.90
2019-02-18T01:38:26.920Z,99.90
2019-02-18T01:39:43.158Z,99.90
2019-02-18T01:41:00.042Z,99.90
2019-02-18T01:42:16.419Z,99.90
2019-02-18T01:43:32.628Z,99.90
2019-02-18T01:44:49.408Z,99.90
2019-02-18T01:46:05.882Z,99.90
2019-02-18T01:47:22.542Z,99.90
2019-02-18T01:48:38.995Z,99.90
2019-02-18T01:49:55.624Z,99.90
2019-02-18T01:51:12.300Z,99.90
2019-02-18T01:52:28.768Z,99.90
2019-02-18T01:53:45.148Z,99.90
2019-02-18T01:55:01.430Z,99.90
2019-02-18T01:56:18.289Z,99.90
2019-02-18T01:57:35.068Z,99.90
2019-02-18T01:58:51.732Z,99.90
2019-02-18T02:00:08.370Z,99.90
2019-02-18T02:01:25.034Z,99.90
2019-02-18T02:02:41.825Z,99.90
2019-02-18T02:03:59.575Z,99.90
2019-02-18T02:05:16.240Z,99.90
2019-02-18T02:06:32.522Z,99.90
2019-02-18T02:07:55.707Z,99.90
2019-02-18T02:09:08.667Z,99.90
2019-02-18T02:10:25.001Z,99.90
2019-02-18T02:11:42.108Z,99.90
2019-02-18T02:12:58.603Z,99.90
2019-02-18T02:14:14.969Z,99.90
2019-02-18T02:15:31.161Z,99.90
2019-02-18T02:16:47.419Z,99.90
2019-02-18T02:18:03.987Z,99.90
2019-02-18T02:19:20.572Z,99.90
2019-02-18T02:20:37.078Z,99.90
2019-02-18T02:21:53.816Z,99.90
2019-02-18T02:23:10.242Z,99.90
2019-02-18T02:24:26.715Z,99.90
2019-02-18T02:25:43.088Z,99.90
2019-02-18T02:26:59.581Z,99.90
2019-02-18T02:28:16.242Z,99.90
2019-02-18T02:29:32.703Z,99.90
2019-02-18T02:30:48.919Z,99.90
2019-02-18T02:32:05.519Z,99.90
2019-02-18T02:33:22.129Z,99.90
2019-02-18T02:34:38.847Z,99.90
2019-02-18T02:35:55.473Z,99.90
2019-02-18T02:37:12.176Z,99.90
2019-02-18T02:38:28.822Z,99.90
2019-02-18T02:39:45.500Z,99.90
2019-02-18T02:41:01.860Z,99.90
2019-02-18T02:42:18.189Z,99.90
2019-02-18T02:43:34.533Z,99.90
2019-02-18T02:44:51.407Z,99.90
2019-02-18T02:46:08.143Z,99.90
2019-02-18T02:47:24.600Z,99.90
2019-02-18T02:48:41.210Z,99.90
2019-02-18T02:49:57.881Z,99.90
2019-02-18T02:51:14.330Z,99.90
2019-02-18T02:52:30.952Z,99.90
2019-02-18T02:53:47.435Z,99.90
2019-02-18T02:55:03.732Z,99.90
2019-02-18T02:56:20.289Z,99.90
2019-02-18T02:57:36.924Z,99.90
2019-02-18T02:58:53.188Z,99.90
2019-02-18T03:00:10.287Z,99.90
2019-02-18T03:01:26.879Z,99.90
2019-02-18T03:02:43.305Z,99.90
2019-02-18T03:04:00.346Z,99.90
2019-02-18T03:05:16.864Z,99.90
2019-02-18T03:06:34.158Z,99.90
2019-02-18T03:07:50.392Z,99.90
2019-02-18T03:09:08.852Z,99.90
2019-02-18T03:10:25.797Z,99.90
2019-02-18T03:11:42.096Z,99.90
2019-02-18T03:12:58.711Z,99.90
2019-02-18T03:14:15.228Z,99.90
2019-02-18T03:15:32.090Z,99.90
2019-02-18T03:16:48.815Z,99.90
2019-02-18T03:18:05.525Z,99.90
2019-02-18T03:19:21.919Z,99.90
2019-02-18T03:20:38.876Z,99.90
2019-02-18T03:21:55.518Z,99.90
2019-02-18T03:23:12.133Z,99.90
2019-02-18T03:24:28.673Z,99.90
2019-02-18T03:26:59.622Z,99.90
2019-02-18T03:28:16.010Z,99.90
2019-02-18T03:29:32.581Z,99.90
2019-02-18T03:30:49.157Z,99.90
2019-02-18T03:32:06.741Z,99.90
2019-02-18T03:33:23.133Z,99.90
2019-02-18T03:34:39.871Z,99.90
2019-02-18T03:35:56.995Z,99.90
2019-02-18T03:37:13.931Z,99.90
2019-02-18T03:38:31.938Z,99.90
2019-02-18T03:39:48.312Z,99.90
2019-02-18T03:41:05.001Z,99.90
2019-02-18T03:42:21.629Z,99.90
2019-02-18T03:43:38.256Z,99.90
2019-02-18T03:44:54.879Z,99.90
2019-02-18T03:46:11.551Z,99.90
2019-02-18T03:47:28.028Z,99.90
2019-02-18T03:48:44.480Z,99.90
2019-02-18T03:50:00.991Z,99.90
2019-02-18T03:51:17.670Z,99.90
2019-02-18T03:52:34.102Z,99.90
2019-02-18T03:53:50.450Z,99.90
2019-02-18T03:55:06.675Z,99.90
2019-02-18T03:56:22.980Z,99.90
2019-02-18T03:57:39.340Z,99.90
2019-02-18T03:58:55.628Z,99.90
2019-02-18T04:00:11.899Z,99.90
2019-02-18T04:01:28.103Z,99.90
2019-02-18T04:02:45.415Z,99.90
2019-02-18T04:04:01.739Z,99.90
2019-02-18T04:05:18.139Z,99.90
2019-02-18T04:06:34.496Z,99.90
2019-02-18T04:07:50.794Z,99.90
2019-02-18T04:09:10.914Z,99.90
2019-02-18T04:10:27.156Z,99.90
2019-02-18T04:11:43.662Z,99.90
2019-02-18T04:13:00.349Z,99.90
2019-02-18T04:14:16.634Z,99.90
2019-02-18T04:15:32.969Z,99.90
2019-02-18T04:16:49.184Z,99.90
2019-02-18T04:18:05.758Z,99.90
2019-02-18T04:19:22.300Z,99.90
2019-02-18T04:20:38.662Z,99.90
2019-02-18T04:21:55.223Z,99.90
2019-02-18T04:23:11.822Z,99.90
2019-02-18T04:24:28.264Z,99.90
2019-02-18T04:25:44.764Z,99.90
2019-02-18T04:27:01.405Z,99.90
2019-02-18T04:28:17.647Z,99.90
2019-02-18T04:29:34.107Z,99.90
2019-02-18T04:30:50.648Z,99.90
2019-02-18T04:32:07.270Z,99.90
2019-02-18T04:33:24.828Z,99.90
2019-02-18T04:34:41.961Z,99.90
2019-02-18T04:35:58.441Z,99.90
2019-02-18T04:37:14.700Z,99.90
2019-02-18T04:38:31.039Z,99.90
2019-02-18T04:39:47.316Z,99.90
2019-02-18T04:41:03.813Z,99.90
2019-02-18T04:42:20.916Z,99.90
2019-02-18T04:43:37.689Z,99.90
2019-02-18T04:44:54.328Z,99.90
2019-02-18T04:46:10.762Z,99.90
2019-02-18T04:47:27.594Z,99.90
2019-02-18T04:48:44.118Z,99.90
2019-02-18T04:50:00.752Z,99.90
2019-02-18T04:51:18.493Z,99.90
2019-02-18T04:52:35.067Z,99.90
2019-02-18T04:53:51.923Z,99.90
2019-02-18T04:55:08.525Z,99.90
2019-02-18T04:56:25.348Z,99.90
2019-02-18T04:57:41.703Z,99.90
2019-02-18T04:58:58.077Z,99.90
2019-02-18T05:00:14.680Z,99.90
2019-02-18T05:01:31.139Z,99.90
2019-02-18T05:02:48.248Z,99.90
2019-02-18T05:04:04.868Z,99.90
2019-02-18T05:05:21.390Z,99.90
2019-02-18T05:06:38.037Z,99.90
2019-02-18T05:07:54.782Z,99.90
2019-02-18T05:09:11.381Z,99.90
2019-02-18T05:10:28.461Z,99.90
2019-02-18T05:11:44.892Z,99.90
2019-02-18T05:13:01.236Z,99.90
2019-02-18T05:14:18.150Z,99.90
2019-02-18T05:16:47.176Z,99.90
2019-02-18T05:18:03.952Z,99.90
2019-02-18T05:19:22.963Z,99.90
2019-02-18T05:20:39.434Z,99.90
2019-02-18T05:21:57.543Z,99.90
2019-02-18T05:23:14.313Z,99.90
2019-02-18T05:24:31.102Z,99.90
2019-02-18T05:25:47.632Z,99.90
2019-02-18T05:27:04.001Z,99.90
2019-02-18T05:28:20.835Z,99.90
2019-02-18T05:29:37.112Z,99.90
2019-02-18T05:30:55.186Z,99.90
2019-02-18T05:32:11.748Z,99.90
2019-02-18T05:33:29.243Z,99.90
2019-02-18T05:34:46.311Z,99.90
2019-02-18T05:36:02.955Z,99.90
2019-02-18T05:37:19.603Z,99.90
2019-02-18T05:38:36.282Z,99.90
2019-02-18T05:39:55.483Z,99.90
2019-02-18T05:41:12.569Z,99.90
2019-02-18T05:42:29.250Z,99.90
2019-02-18T05:43:49.183Z,99.90
2019-02-18T05:45:06.363Z,99.90
2019-02-18T05:47:21.109Z,99.90
2019-02-18T05:48:38.057Z,99.90
2019-02-18T05:49:54.853Z,99.90
2019-02-18T05:51:11.527Z,99.90
2019-02-18T05:52:28.712Z,99.90
2019-02-18T05:53:45.342Z,99.90
2019-02-18T05:55:02.327Z,99.90
2019-02-18T05:56:19.424Z,99.90
2019-02-18T05:57:35.943Z,99.90
2019-02-18T05:58:52.660Z,99.90
2019-02-18T06:00:09.771Z,99.90
2019-02-18T06:01:26.775Z,99.90
2019-02-18T06:02:43.102Z,99.90
2019-02-18T06:04:00.234Z,99.90
2019-02-18T06:05:17.551Z,99.90
2019-02-18T06:06:35.088Z,99.90
2019-02-18T06:07:52.346Z,99.90
2019-02-18T06:09:09.454Z,99.90
2019-02-18T06:10:26.266Z,99.90
2019-02-18T06:11:42.477Z,99.90
2019-02-18T06:12:59.196Z,99.90
2019-02-18T06:14:15.974Z,99.90
2019-02-18T06:15:33.219Z,99.90
2019-02-18T06:16:49.866Z,99.90
2019-02-18T06:18:06.190Z,99.90
2019-02-18T06:19:22.696Z,99.90
2019-02-18T06:20:39.301Z,99.90
2019-02-18T06:21:55.807Z,99.90
2019-02-18T06:23:12.171Z,99.90
2019-02-18T06:24:28.659Z,99.90
2019-02-18T06:25:45.278Z,99.90
2019-02-18T06:27:01.971Z,99.90
2019-02-18T06:28:18.243Z,99.90
2019-02-18T06:29:34.525Z,99.90
2019-02-18T06:30:51.076Z,99.90
2019-02-18T06:32:07.745Z,99.90
2019-02-18T06:33:24.253Z,99.90
2019-02-18T06:34:40.725Z,99.90
2019-02-18T06:35:57.307Z,99.90
2019-02-18T06:37:13.585Z,99.90
2019-02-18T06:38:30.039Z,99.90
2019-02-18T06:39:46.723Z,99.90
2019-02-18T06:41:03.334Z,99.90
2019-02-18T06:42:20.071Z,99.90
2019-02-18T06:43:36.465Z,99.90
2019-02-18T06:46:52.453Z,99.90
2019-02-18T06:50:14.508Z,99.90
2019-02-18T06:51:31.345Z,99.90
2019-02-18T06:52:47.699Z,99.90
2019-02-18T06:54:04.217Z,99.90
2019-02-18T06:55:20.744Z,99.90
2019-02-18T06:58:34.720Z,99.90
2019-02-18T06:59:56.420Z,99.90
2019-02-18T07:01:32.296Z,99.90
2019-02-18T07:03:07.632Z,99.90
2019-02-18T07:04:31.371Z,99.90
2019-02-18T07:06:02.882Z,99.90
2019-02-18T07:07:38.830Z,99.90
2019-02-18T07:09:02.301Z,99.90
2019-02-18T07:10:27.692Z,99.90
2019-02-18T07:11:49.054Z,99.90
2019-02-18T07:13:06.149Z,99.90
2019-02-18T07:14:22.454Z,99.90
2019-02-18T07:15:38.766Z,99.90
2019-02-18T07:16:55.156Z,99.90
2019-02-18T07:18:12.120Z,99.90
2019-02-18T07:19:28.719Z,99.90
2019-02-18T07:20:45.233Z,99.90
2019-02-18T07:22:01.813Z,99.90
2019-02-18T07:23:18.925Z,99.90
2019-02-18T07:24:35.375Z,99.90
2019-02-18T07:25:51.949Z,99.90
2019-02-18T07:27:08.709Z,99.90
2019-02-18T07:28:25.474Z,99.90
2019-02-18T07:29:42.413Z,99.90
2019-02-18T07:30:59.004Z,99.90
2019-02-18T07:32:15.577Z,99.90
2019-02-18T07:33:32.059Z,99.90
2019-02-18T07:34:48.463Z,99.90
2019-02-18T07:36:05.046Z,99.90
2019-02-18T07:37:21.506Z,99.90
2019-02-18T07:38:37.955Z,99.90
2019-02-18T07:40:01.222Z,99.90
2019-02-18T07:41:12.708Z,99.90
2019-02-18T07:42:29.346Z,99.90
2019-02-18T07:43:45.946Z,99.90
2019-02-18T07:45:02.258Z,99.90
2019-02-18T07:46:19.380Z,99.90
2019-02-18T07:47:36.076Z,99.90
2019-02-18T07:48:52.547Z,99.90
2019-02-18T07:50:08.732Z,99.90
2019-02-18T07:51:25.109Z,99.90
2019-02-18T07:52:41.595Z,99.90
2019-02-18T07:53:57.853Z,99.90
2019-02-18T07:55:14.144Z,99.90
2019-02-18T07:56:30.473Z,99.90
2019-02-18T07:57:47.132Z,99.90
2019-02-18T07:59:03.679Z,99.90
2019-02-18T08:00:20.016Z,99.90
2019-02-18T08:01:39.274Z,99.90
2019-02-18T08:02:56.397Z,99.90
2019-02-18T08:04:13.432Z,99.90
2019-02-18T08:05:29.733Z,99.90
2019-02-18T08:06:46.716Z,99.90
2019-02-18T08:08:03.303Z,99.90
2019-02-18T08:09:19.952Z,99.90
2019-02-18T08:10:37.064Z,99.90
2019-02-18T08:11:53.858Z,99.90
2019-02-18T08:13:10.637Z,99.90
2019-02-18T08:14:27.136Z,99.90
2019-02-18T08:15:43.667Z,99.90
2019-02-18T08:17:00.099Z,99.90
2019-02-18T08:18:16.468Z,99.90
2019-02-18T08:19:32.853Z,99.90
2019-02-18T08:20:49.656Z,99.90
2019-02-18T08:22:06.310Z,99.90
2019-02-18T08:23:22.944Z,99.90
2019-02-18T08:24:39.428Z,99.90
2019-02-18T08:25:56.464Z,99.90
2019-02-18T08:27:13.342Z,99.90
2019-02-18T08:28:29.964Z,99.90
2019-02-18T08:29:47.041Z,99.90
2019-02-18T08:31:03.615Z,99.90
2019-02-18T08:32:20.364Z,99.90
2019-02-18T08:33:39.888Z,99.90
2019-02-18T08:34:57.055Z,99.90
2019-02-18T08:36:13.473Z,99.90
2019-02-18T08:37:30.397Z,99.90
2019-02-18T08:38:47.144Z,99.90
2019-02-18T08:40:04.001Z,99.90
2019-02-18T08:41:20.463Z,99.90
2019-02-18T08:42:37.581Z,99.90
2019-02-18T08:43:54.381Z,99.90
2019-02-18T08:45:11.460Z,99.90
2019-02-18T08:46:27.756Z,99.90
2019-02-18T08:47:44.152Z,99.90
2019-02-18T08:49:00.557Z,99.90
2019-02-18T08:50:16.883Z,99.90
2019-02-18T08:51:33.597Z,99.90
2019-02-18T08:52:49.989Z,99.90
2019-02-18T08:54:06.414Z,99.90
2019-02-18T08:55:23.013Z,99.90
2019-02-18T08:56:39.500Z,99.70
2019-02-18T08:57:55.870Z,98.60
2019-02-18T08:59:12.336Z,98.30
2019-02-18T09:00:29.715Z,97.50
2019-02-18T09:01:46.443Z,97.50
2019-02-18T09:03:02.900Z,97.60
2019-02-18T09:04:19.392Z,97.50
2019-02-18T09:05:36.130Z,97.20
2019-02-18T09:06:52.636Z,97.20
2019-02-18T09:08:09.281Z,97.40
2019-02-18T09:09:26.178Z,97.60
2019-02-18T09:10:42.890Z,98.10
2019-02-18T09:11:59.564Z,98.90
2019-02-18T09:13:16.365Z,99.30
2019-02-18T09:14:33.008Z,99.20
2019-02-18T09:15:59.484Z,99.80
2019-02-18T09:17:08.060Z,99.90
2019-02-18T09:18:24.339Z,99.90
2019-02-18T09:19:41.466Z,99.90
2019-02-18T09:20:58.309Z,99.90
2019-02-18T09:22:33.900Z,99.90
2019-02-18T09:24:06.705Z,99.90
2019-02-18T09:25:25.429Z,99.90
2019-02-18T09:26:42.266Z,99.90
2019-02-18T09:27:58.761Z,99.90
2019-02-18T09:29:15.240Z,99.90
2019-02-18T09:30:34.105Z,99.90
2019-02-18T09:31:51.257Z,99.90
2019-02-18T09:33:07.576Z,99.90
2019-02-18T09:34:24.384Z,99.90
2019-02-18T09:35:40.595Z,99.90
2019-02-18T09:36:57.048Z,99.90
2019-02-18T09:38:23.818Z,99.90
2019-02-18T09:39:31.856Z,99.90
2019-02-18T09:40:51.350Z,99.90
2019-02-18T09:42:07.039Z,99.90
2019-02-18T09:43:23.737Z,99.90
2019-02-18T09:44:40.614Z,99.90
2019-02-18T09:45:56.941Z,99.90
2019-02-18T09:47:13.485Z,99.90
2019-02-18T09:48:29.938Z,99.90
2019-02-18T09:49:47.169Z,99.90
2019-02-18T09:51:03.788Z,99.90
2019-02-18T09:52:20.071Z,99.90
2019-02-18T09:53:37.226Z,99.90
2019-02-18T09:54:53.950Z,99.90
2019-02-18T09:56:10.587Z,99.90
2019-02-18T09:57:27.056Z,99.90
2019-02-18T09:58:43.274Z,99.90
2019-02-18T09:59:59.944Z,99.90
2019-02-18T10:01:16.635Z,99.90
2019-02-18T10:02:33.196Z,99.90
2019-02-18T10:03:49.921Z,99.90
2019-02-18T10:05:06.535Z,99.90
2019-02-18T10:06:23.275Z,99.90
2019-02-18T10:07:39.662Z,99.90
2019-02-18T10:08:56.610Z,99.90
2019-02-18T10:10:13.062Z,99.90
2019-02-18T10:11:29.373Z,99.90
2019-02-18T10:12:45.774Z,99.90
2019-02-18T10:14:02.292Z,99.90
2019-02-18T10:15:18.643Z,99.90
2019-02-18T10:16:35.258Z,99.90
2019-02-18T10:17:51.936Z,99.90
2019-02-18T10:19:08.585Z,99.90
2019-02-18T10:20:25.119Z,99.90
2019-02-18T10:21:41.748Z,99.90
2019-02-18T10:22:58.219Z,99.90
2019-02-18T10:24:15.002Z,99.90
2019-02-18T10:25:31.407Z,99.90
2019-02-18T10:26:48.075Z,99.90
2019-02-18T10:28:04.944Z,99.90
2019-02-18T10:29:21.454Z,99.90
2019-02-18T10:30:37.725Z,99.90
2019-02-18T10:31:54.151Z,99.90
2019-02-18T10:33:11.680Z,99.90
2019-02-18T10:34:28.363Z,99.90
2019-02-18T10:35:44.918Z,99.90
2019-02-18T10:37:01.367Z,99.90
2019-02-18T10:38:17.915Z,99.90
2019-02-18T10:39:34.175Z,99.90
2019-02-18T10:40:51.341Z,99.90
2019-02-18T10:42:08.361Z,99.90
2019-02-18T10:43:13.441Z,99.90
2019-02-18T10:44:37.260Z,99.90
2019-02-18T10:45:54.104Z,99.90
2019-02-18T10:47:10.682Z,99.90
2019-02-18T10:48:27.075Z,99.90
2019-02-18T10:49:43.485Z,99.90
2019-02-18T10:50:59.835Z,99.90
2019-02-18T10:52:16.061Z,99.80
2019-02-18T10:53:32.486Z,99.70
2019-02-18T10:54:49.686Z,99.80
2019-02-18T10:56:06.961Z,99.90
2019-02-18T10:57:23.581Z,99.90
2019-02-18T10:58:40.632Z,99.70
2019-02-18T10:59:59.206Z,99.90
2019-02-18T11:01:15.187Z,99.60
2019-02-18T11:02:31.770Z,99.30
2019-02-18T11:03:48.973Z,99.30
2019-02-18T11:05:05.337Z,99.10
2019-02-18T11:06:21.626Z,99.50
2019-02-18T11:07:38.214Z,99.30
2019-02-18T11:08:54.711Z,99.50
2019-02-18T11:10:11.118Z,99.60
2019-02-18T11:11:27.662Z,99.60
2019-02-18T11:12:44.067Z,99.30
2019-02-18T11:14:00.719Z,99.60
2019-02-18T11:15:17.394Z,99.30
2019-02-18T11:16:34.448Z,99.10
2019-02-18T11:17:51.092Z,99.10
2019-02-18T11:19:07.327Z,99.10
2019-02-18T11:20:23.725Z,98.90
2019-02-18T11:21:40.262Z,98.80
2019-02-18T11:22:57.475Z,98.90
2019-02-18T11:24:13.840Z,98.80
2019-02-18T11:25:30.254Z,98.60
2019-02-18T11:26:47.204Z,98.60
2019-02-18T11:28:03.538Z,98.00
2019-02-18T11:29:20.275Z,98.20
2019-02-18T11:30:38.973Z,98.00
2019-02-18T11:31:55.109Z,97.80
2019-02-18T11:33:11.738Z,97.70
2019-02-18T11:34:28.716Z,97.10
2019-02-18T11:35:46.146Z,96.80
2019-02-18T11:37:02.368Z,97.00
2019-02-18T11:38:18.741Z,96.90
2019-02-18T11:39:35.533Z,96.90
2019-02-18T11:40:51.997Z,96.80
2019-02-18T11:42:08.427Z,96.80
2019-02-18T11:43:25.097Z,96.80
2019-02-18T11:44:41.671Z,96.70
2019-02-18T11:45:58.064Z,96.50
2019-02-18T11:47:14.754Z,96.40
2019-02-18T11:48:31.685Z,96.30
2019-02-18T11:49:48.167Z,96.30
2019-02-18T11:51:04.900Z,96.20
2019-02-18T11:52:21.469Z,95.90
2019-02-18T11:53:38.254Z,95.90
2019-02-18T11:54:55.567Z,95.80
2019-02-18T11:56:11.933Z,95.80
2019-02-18T11:57:28.108Z,95.90
2019-02-18T11:58:44.568Z,96.10
2019-02-18T12:00:00.848Z,96.20
2019-02-18T12:01:17.310Z,95.80
2019-02-18T12:02:34.277Z,95.60
2019-02-18T12:03:50.739Z,95.50
2019-02-18T12:05:07.132Z,95.60
2019-02-18T12:06:23.625Z,95.60
2019-02-18T12:07:40.730Z,95.20
2019-02-18T12:08:57.347Z,94.90
2019-02-18T12:10:14.461Z,95.00
2019-02-18T12:11:38.072Z,95.10
2019-02-18T12:12:49.980Z,95.00
2019-02-18T12:14:06.338Z,94.70
2019-02-18T12:15:23.494Z,94.80
2019-02-18T12:16:40.080Z,95.20
2019-02-18T12:17:56.563Z,95.00
2019-02-18T12:19:13.653Z,94.50
2019-02-18T12:20:30.919Z,94.10
2019-02-18T12:21:47.187Z,94.30
2019-02-18T12:22:51.989Z,94.40
2019-02-18T12:23:56.887Z,94.00
2019-02-18T12:25:01.666Z,93.80
2019-02-18T12:26:06.261Z,93.50
2019-02-18T12:27:10.855Z,93.20
2019-02-18T12:28:15.443Z,93.10
2019-02-18T12:29:26.163Z,92.60
2019-02-18T12:30:26.394Z,92.60
2019-02-18T12:31:31.007Z,92.60
2019-02-18T12:32:35.658Z,92.60
2019-02-18T12:33:40.282Z,92.60
2019-02-18T12:34:45.042Z,92.70
2019-02-18T12:35:49.652Z,92.60
2019-02-18T12:36:54.368Z,92.40
2019-02-18T12:37:59.021Z,91.90
2019-02-18T12:39:06.125Z,91.60
2019-02-18T12:40:10.779Z,91.30
2019-02-18T12:41:15.396Z,91.10
2019-02-18T12:42:20.314Z,91.10
2019-02-18T12:43:25.192Z,90.90
2019-02-18T12:44:29.798Z,90.80
2019-02-18T12:45:34.497Z,90.40
2019-02-18T12:46:39.075Z,90.10
2019-02-18T12:47:43.678Z,90.30
2019-02-18T12:48:48.315Z,90.20
2019-02-18T12:49:52.907Z,90.10
2019-02-18T12:50:57.600Z,90.10
2019-02-18T12:52:02.241Z,90.10
2019-02-18T12:53:06.872Z,90.20
2019-02-18T12:54:11.535Z,90.30
2019-02-18T12:55:16.426Z,90.30
2019-02-18T12:56:21.223Z,90.60
2019-02-18T12:57:26.022Z,90.70
2019-02-18T12:58:30.989Z,90.60
2019-02-18T12:59:35.734Z,90.70
2019-02-18T13:00:40.451Z,90.50
2019-02-18T13:01:45.039Z,90.50
2019-02-18T13:02:49.756Z,90.10
2019-02-18T13:03:54.503Z,90.10
2019-02-18T13:04:59.166Z,90.10
2019-02-18T13:06:03.991Z,90.00
2019-02-18T13:07:08.722Z,89.90
2019-02-18T13:08:13.455Z,89.80
2019-02-18T13:09:18.143Z,89.80
2019-02-18T13:10:22.809Z,89.60
2019-02-18T13:11:27.554Z,90.00
2019-02-18T13:12:32.375Z,90.20
2019-02-18T13:13:37.376Z,89.90
2019-02-18T13:14:42.158Z,88.20
2019-02-18T13:15:46.816Z,88.70
2019-02-18T13:16:51.442Z,88.20
2019-02-18T13:17:56.077Z,87.90
2019-02-18T13:19:00.794Z,87.50
2019-02-18T13:20:05.511Z,86.80
2019-02-18T13:21:10.271Z,86.90
2019-02-18T13:22:15.011Z,86.30
2019-02-18T13:23:19.662Z,86.20
2019-02-18T13:24:24.379Z,86.00
2019-02-18T13:25:29.045Z,85.60
2019-02-18T13:26:33.711Z,86.00
2019-02-18T13:27:38.386Z,85.80
2019-02-18T13:28:43.200Z,85.80
2019-02-18T13:29:48.102Z,86.00
2019-02-18T13:30:52.746Z,85.80
2019-02-18T13:31:57.416Z,86.10
2019-02-18T13:33:01.988Z,86.20
2019-02-18T13:34:06.679Z,85.90
2019-02-18T13:35:11.353Z,86.10
2019-02-18T13:36:16.087Z,86.30
2019-02-18T13:37:20.666Z,86.50
2019-02-18T13:38:25.292Z,86.60
2019-02-18T13:39:29.908Z,86.80
2019-02-18T13:40:34.601Z,86.80
2019-02-18T13:41:39.283Z,87.10
2019-02-18T13:42:43.972Z,86.80
2019-02-18T13:43:48.637Z,86.80
2019-02-18T13:44:53.288Z,87.10
2019-02-18T13:45:58.139Z,87.00
2019-02-18T13:47:03.283Z,87.70
2019-02-18T13:48:07.952Z,87.80
2019-02-18T13:49:12.629Z,87.80
2019-02-18T13:50:17.248Z,88.20
2019-02-18T13:51:24.281Z,88.40
2019-02-18T13:52:28.253Z,86.30
2019-02-18T13:53:32.838Z,86.50
2019-02-18T13:54:37.487Z,85.80
2019-02-18T13:55:42.178Z,85.30
2019-02-18T13:56:46.919Z,85.00
2019-02-18T13:57:51.532Z,84.60
2019-02-18T13:58:56.249Z,84.60
2019-02-18T14:00:00.934Z,83.40
2019-02-18T14:01:06.195Z,82.40
2019-02-18T14:02:10.991Z,82.60
2019-02-18T14:03:15.596Z,81.60
2019-02-18T14:04:20.451Z,81.10
2019-02-18T14:05:25.343Z,80.30
2019-02-18T14:06:29.991Z,80.30
2019-02-18T14:07:36.277Z,79.30
2019-02-18T14:08:41.912Z,79.90
2019-02-18T14:09:46.568Z,79.20
2019-02-18T14:10:51.121Z,78.60
2019-02-18T14:11:55.687Z,77.50
2019-02-18T14:13:00.417Z,77.50
2019-02-18T14:14:05.041Z,77.40
2019-02-18T14:15:11.390Z,77.90
2019-02-18T14:16:16.083Z,77.70
2019-02-18T14:17:20.668Z,77.80
2019-02-18T14:18:25.289Z,77.50
2019-02-18T14:19:29.932Z,76.50
2019-02-18T14:20:34.550Z,76.50
2019-02-18T14:21:39.200Z,76.50
2019-02-18T14:22:44.109Z,76.90
2019-02-18T14:23:49.065Z,76.00
2019-02-18T14:24:53.819Z,75.80
2019-02-18T14:25:58.435Z,75.20
2019-02-18T14:27:03.107Z,75.30
2019-02-18T14:28:07.723Z,75.40
2019-02-18T14:29:12.288Z,75.40
2019-02-18T14:30:17.116Z,75.50
2019-02-18T14:31:21.723Z,75.80
2019-02-18T14:32:26.273Z,75.70
2019-02-18T14:33:30.944Z,76.00
2019-02-18T14:34:35.690Z,76.20
2019-02-18T14:35:40.409Z,76.50
2019-02-18T14:36:45.151Z,76.70
2019-02-18T14:37:49.859Z,77.20
2019-02-18T14:38:54.478Z,77.20
2019-02-18T14:39:59.147Z,77.90
2019-02-18T14:41:04.160Z,78.20
2019-02-18T14:42:09.102Z,78.00
2019-02-18T14:43:13.660Z,77.70
2019-02-18T14:44:18.257Z,77.70
2019-02-18T14:45:22.863Z,77.50
2019-02-18T14:46:27.530Z,77.80
2019-02-18T14:47:32.166Z,77.70
2019-02-18T14:48:36.783Z,77.80
2019-02-18T14:49:41.436Z,77.40
2019-02-18T14:50:46.078Z,77.80
2019-02-18T14:51:50.755Z,78.60
2019-02-18T14:52:55.483Z,77.50
2019-02-18T14:54:00.091Z,77.50
2019-02-18T14:55:05.126Z,77.50
2019-02-18T14:56:13.146Z,77.60
2019-02-18T14:57:17.730Z,77.60
2019-02-18T14:58:22.347Z,77.90
2019-02-18T14:59:28.119Z,77.90
2019-02-18T15:00:33.213Z,77.60
2019-02-18T15:01:37.934Z,77.70
2019-02-18T15:02:43.559Z,77.80
2019-02-18T15:03:48.131Z,77.80
2019-02-18T15:04:52.901Z,77.40
2019-02-18T15:05:57.576Z,78.70
2019-02-18T15:07:02.229Z,77.90
2019-02-18T15:08:06.899Z,78.10
2019-02-18T15:09:11.479Z,78.30
2019-02-18T15:10:16.139Z,78.10
2019-02-18T15:11:20.752Z,78.30
2019-02-18T15:12:32.735Z,78.10
2019-02-18T15:13:31.603Z,78.00
2019-02-18T15:14:36.272Z,78.30
2019-02-18T15:15:40.919Z,78.30
2019-02-18T15:16:45.569Z,78.20
2019-02-18T15:17:50.478Z,78.30
2019-02-18T15:18:55.554Z,78.70
2019-02-18T15:20:00.208Z,78.80
2019-02-18T15:21:04.932Z,78.90
2019-02-18T15:22:09.533Z,79.10
2019-02-18T15:23:14.186Z,79.30
2019-02-18T15:24:18.941Z,79.70
2019-02-18T15:25:23.587Z,80.00
2019-02-18T15:26:28.207Z,79.80
2019-02-18T15:27:32.884Z,79.60
2019-02-18T15:28:37.754Z,79.50
2019-02-18T15:29:42.350Z,79.30
2019-02-18T15:30:47.036Z,79.30
2019-02-18T15:31:51.738Z,79.40
2019-02-18T15:32:56.544Z,79.50
2019-02-18T15:34:01.185Z,79.60
2019-02-18T15:35:05.784Z,80.00
2019-02-18T15:36:10.691Z,79.90
2019-02-18T15:37:16.637Z,79.80
2019-02-18T15:38:21.219Z,79.90
2019-02-18T15:39:26.087Z,79.90
2019-02-18T15:40:30.829Z,80.00
2019-02-18T15:41:35.400Z,80.20
2019-02-18T15:42:42.214Z,80.40
2019-02-18T15:43:46.317Z,80.40
2019-02-18T15:44:51.003Z,80.80
2019-02-18T15:45:55.606Z,80.80
2019-02-18T15:47:00.354Z,80.90
2019-02-18T15:48:05.555Z,81.00
2019-02-18T15:49:10.208Z,81.20
2019-02-18T15:50:15.555Z,81.30
2019-02-18T15:51:20.278Z,81.50
2019-02-18T15:52:24.927Z,81.60
2019-02-18T15:53:29.769Z,81.60
2019-02-18T15:54:34.435Z,81.80
2019-02-18T15:55:40.135Z,81.80
2019-02-18T15:56:44.888Z,82.10
2019-02-18T15:57:49.498Z,82.20
2019-02-18T15:58:54.153Z,82.20
2019-02-18T15:59:58.828Z,82.40
2019-02-18T16:01:04.068Z,82.60